createdAt,value
2018-09-12T00:00:07.783Z,1.609344
2018-09-12T00:00:20.204Z,3.218688
2018-09-12T00:00:32.625Z,6.437376
2018-09-12T00:00:45.052Z,6.437376
2018-09-12T00:00:57.457Z,6.437376
2018-09-12T00:01:09.953Z,1.609344
2018-09-12T00:01:22.356Z,1.609344
2018-09-12T00:01:34.761Z,1.609344
2018-09-12T00:01:47.215Z,1.609344
2018-09-12T00:01:59.623Z,1.609344
2018-09-12T00:02:12.033Z,3.218688
2018-09-12T00:02:24.413Z,3.218688
2018-09-12T00:02:36.874Z,3.218688
2018-09-12T00:02:49.269Z,3.218688
2018-09-12T00:03:01.682Z,3.218688
2018-09-12T00:03:14.082Z,1.609344
2018-09-12T00:03:26.959Z,1.609344
2018-09-12T00:03:39.762Z,3.218688
2018-09-12T00:03:52.169Z,3.218688
2018-09-12T00:04:04.572Z,1.609344
2018-09-12T00:04:16.963Z,1.609344
2018-09-12T00:04:29.365Z,1.609344
2018-09-12T00:04:41.759Z,1.609344
2018-09-12T00:04:54.177Z,1.609344
2018-09-12T00:05:06.604Z,1.609344
2018-09-12T00:05:19.030Z,3.218688
2018-09-12T00:05:31.431Z,4.828032
2018-09-12T00:05:43.845Z,4.828032
2018-09-12T00:05:56.249Z,4.828032
2018-09-12T00:06:08.654Z,3.218688
2018-09-12T00:06:21.112Z,3.218688
2018-09-12T00:06:33.515Z,3.218688
2018-09-12T00:06:45.927Z,3.218688
2018-09-12T00:06:58.326Z,3.218688
2018-09-12T00:07:10.733Z,1.609344
2018-09-12T00:07:23.161Z,1.609344
2018-09-12T00:07:35.564Z,1.609344
2018-09-12T00:07:47.969Z,3.218688
2018-09-12T00:08:00.408Z,3.218688
2018-09-12T00:08:12.833Z,3.218688
2018-09-12T00:08:25.246Z,6.437376
2018-09-12T00:08:37.926Z,6.437376
2018-09-12T00:08:50.352Z,8.04672
2018-09-12T00:09:02.746Z,8.04672
2018-09-12T00:09:15.154Z,8.04672
2018-09-12T00:09:27.574Z,8.04672
2018-09-12T00:09:39.971Z,8.04672
2018-09-12T00:09:52.348Z,8.04672
2018-09-12T00:10:04.744Z,3.218688
2018-09-12T00:10:17.479Z,3.218688
2018-09-12T00:10:30.003Z,3.218688
2018-09-12T00:10:42.391Z,3.218688
2018-09-12T00:10:54.791Z,3.218688
2018-09-12T00:11:07.190Z,1.609344
2018-09-12T00:11:19.583Z,1.609344
2018-09-12T00:11:31.982Z,1.609344
2018-09-12T00:11:44.578Z,1.609344
2018-09-12T00:11:57.038Z,4.828032
2018-09-12T00:12:09.444Z,6.437376
2018-09-12T00:12:21.856Z,6.437376
2018-09-12T00:12:34.259Z,6.437376
2018-09-12T00:12:46.659Z,6.437376
2018-09-12T00:12:59.050Z,6.437376
2018-09-12T00:13:11.467Z,3.218688
2018-09-12T00:13:23.861Z,3.218688
2018-09-12T00:13:36.265Z,3.218688
2018-09-12T00:13:48.668Z,3.218688
2018-09-12T00:14:01.189Z,3.218688
2018-09-12T00:14:13.591Z,1.609344
2018-09-12T00:14:25.970Z,1.609344
2018-09-12T00:14:38.360Z,1.609344
2018-09-12T00:14:50.813Z,1.609344
2018-09-12T00:15:03.224Z,3.218688
2018-09-12T00:15:15.654Z,3.218688
2018-09-12T00:15:28.038Z,3.218688
2018-09-12T00:15:40.425Z,3.218688
2018-09-12T00:15:52.830Z,3.218688
2018-09-12T00:16:05.259Z,1.609344
2018-09-12T00:16:17.666Z,3.218688
2018-09-12T00:16:30.065Z,4.828032
2018-09-12T00:16:42.459Z,4.828032
2018-09-12T00:16:54.850Z,4.828032
2018-09-12T00:17:07.248Z,3.218688
2018-09-12T00:17:19.635Z,6.437376
2018-09-12T00:17:32.110Z,8.04672
2018-09-12T00:17:44.626Z,8.04672
2018-09-12T00:17:57.019Z,8.04672
2018-09-12T00:18:09.426Z,6.437376
2018-09-12T00:18:21.838Z,6.437376
2018-09-12T00:18:34.353Z,6.437376
2018-09-12T00:18:46.777Z,6.437376
2018-09-12T00:18:59.181Z,6.437376
2018-09-12T00:19:11.590Z,1.609344
2018-09-12T00:19:23.974Z,1.609344
2018-09-12T00:19:36.358Z,3.218688
2018-09-12T00:19:48.751Z,3.218688
2018-09-12T00:20:01.161Z,3.218688
2018-09-12T00:20:13.590Z,3.218688
2018-09-12T00:20:25.989Z,3.218688
2018-09-12T00:20:38.376Z,3.218688
2018-09-12T00:20:50.810Z,3.218688
2018-09-12T00:21:03.715Z,3.218688
2018-09-12T00:21:17.580Z,1.609344
2018-09-12T00:21:30.285Z,1.609344
2018-09-12T00:21:42.705Z,3.218688
2018-09-12T00:21:55.117Z,3.218688
2018-09-12T00:22:07.541Z,4.828032
2018-09-12T00:22:19.933Z,8.04672
2018-09-12T00:22:32.332Z,8.04672
2018-09-12T00:22:44.742Z,8.04672
2018-09-12T00:22:57.146Z,8.04672
2018-09-12T00:23:09.643Z,1.609344
2018-09-12T00:23:22.066Z,1.609344
2018-09-12T00:23:34.463Z,1.609344
2018-09-12T00:23:46.855Z,1.609344
2018-09-12T00:23:59.518Z,3.218688
2018-09-12T00:24:11.939Z,3.218688
2018-09-12T00:24:24.345Z,3.218688
2018-09-12T00:24:37.121Z,3.218688
2018-09-12T00:24:49.548Z,3.218688
2018-09-12T00:25:02.025Z,3.218688
2018-09-12T00:25:14.512Z,3.218688
2018-09-12T00:25:26.939Z,3.218688
2018-09-12T00:25:39.536Z,3.218688
2018-09-12T00:25:51.939Z,3.218688
2018-09-12T00:26:04.346Z,3.218688
2018-09-12T00:26:16.768Z,1.609344
2018-09-12T00:26:29.190Z,1.609344
2018-09-12T00:26:41.604Z,4.828032
2018-09-12T00:26:53.991Z,6.437376
2018-09-12T00:27:06.458Z,6.437376
2018-09-12T00:27:18.876Z,6.437376
2018-09-12T00:27:31.283Z,6.437376
2018-09-12T00:27:43.686Z,6.437376
2018-09-12T00:27:56.111Z,6.437376
2018-09-12T00:28:08.520Z,0
2018-09-12T00:28:20.919Z,0
2018-09-12T00:28:33.314Z,1.609344
2018-09-12T00:28:45.719Z,3.218688
2018-09-12T00:28:58.102Z,3.218688
2018-09-12T00:29:10.500Z,3.218688
2018-09-12T00:29:22.908Z,3.218688
2018-09-12T00:29:35.484Z,3.218688
2018-09-12T00:29:47.878Z,3.218688
2018-09-12T00:30:00.269Z,3.218688
2018-09-12T00:30:12.674Z,1.609344
2018-09-12T00:30:25.113Z,1.609344
2018-09-12T00:30:37.510Z,3.218688
2018-09-12T00:30:49.905Z,3.218688
2018-09-12T00:31:02.349Z,3.218688
2018-09-12T00:31:14.748Z,1.609344
2018-09-12T00:31:27.387Z,1.609344
2018-09-12T00:31:39.793Z,1.609344
2018-09-12T00:31:52.187Z,3.218688
2018-09-12T00:32:04.598Z,3.218688
2018-09-12T00:32:17.011Z,3.218688
2018-09-12T00:32:29.432Z,3.218688
2018-09-12T00:32:41.888Z,3.218688
2018-09-12T00:32:54.293Z,3.218688
2018-09-12T00:33:06.715Z,1.609344
2018-09-12T00:33:19.172Z,1.609344
2018-09-12T00:33:31.571Z,1.609344
2018-09-12T00:33:44.015Z,1.609344
2018-09-12T00:33:56.420Z,1.609344
2018-09-12T00:34:08.817Z,1.609344
2018-09-12T00:34:21.215Z,1.609344
2018-09-12T00:34:33.634Z,1.609344
2018-09-12T00:34:46.038Z,1.609344
2018-09-12T00:34:58.426Z,1.609344
2018-09-12T00:35:10.815Z,1.609344
2018-09-12T00:35:23.205Z,1.609344
2018-09-12T00:35:35.610Z,1.609344
2018-09-12T00:35:48.002Z,1.609344
2018-09-12T00:36:00.415Z,1.609344
2018-09-12T00:36:12.822Z,0
2018-09-12T00:36:25.372Z,1.609344
2018-09-12T00:36:37.789Z,1.609344
2018-09-12T00:36:50.192Z,3.218688
2018-09-12T00:37:02.616Z,3.218688
2018-09-12T00:37:15.035Z,1.609344
2018-09-12T00:37:27.731Z,1.609344
2018-09-12T00:37:40.150Z,3.218688
2018-09-12T00:37:52.592Z,3.218688
2018-09-12T00:38:04.997Z,0
2018-09-12T00:38:17.391Z,1.609344
2018-09-12T00:38:29.835Z,1.609344
2018-09-12T00:38:42.246Z,1.609344
2018-09-12T00:38:54.648Z,1.609344
2018-09-12T00:39:07.049Z,1.609344
2018-09-12T00:39:19.504Z,4.828032
2018-09-12T00:39:31.907Z,6.437376
2018-09-12T00:39:44.295Z,6.437376
2018-09-12T00:39:56.735Z,6.437376
2018-09-12T00:40:09.133Z,8.04672
2018-09-12T00:40:21.566Z,8.04672
2018-09-12T00:40:33.958Z,8.04672
2018-09-12T00:40:46.365Z,8.04672
2018-09-12T00:40:58.844Z,8.04672
2018-09-12T00:41:11.271Z,1.609344
2018-09-12T00:41:23.661Z,3.218688
2018-09-12T00:41:36.057Z,3.218688
2018-09-12T00:41:48.484Z,3.218688
2018-09-12T00:42:00.883Z,3.218688
2018-09-12T00:42:13.272Z,1.609344
2018-09-12T00:42:25.735Z,3.218688
2018-09-12T00:42:38.143Z,3.218688
2018-09-12T00:42:50.558Z,4.828032
2018-09-12T00:43:02.951Z,6.437376
2018-09-12T00:43:15.353Z,3.218688
2018-09-12T00:43:27.773Z,3.218688
2018-09-12T00:43:40.189Z,3.218688
2018-09-12T00:43:52.585Z,3.218688
2018-09-12T00:44:04.990Z,1.609344
2018-09-12T00:44:17.409Z,3.218688
2018-09-12T00:44:29.832Z,3.218688
2018-09-12T00:44:42.227Z,3.218688
2018-09-12T00:44:54.627Z,3.218688
2018-09-12T00:45:07.047Z,0
2018-09-12T00:45:19.442Z,1.609344
2018-09-12T00:45:31.848Z,1.609344
2018-09-12T00:45:44.235Z,1.609344
2018-09-12T00:45:56.659Z,1.609344
2018-09-12T00:46:09.047Z,0
2018-09-12T00:46:21.461Z,1.609344
2018-09-12T00:46:33.857Z,1.609344
2018-09-12T00:46:46.540Z,1.609344
2018-09-12T00:46:58.966Z,1.609344
2018-09-12T00:47:11.372Z,1.609344
2018-09-12T00:47:23.757Z,3.218688
2018-09-12T00:47:36.161Z,3.218688
2018-09-12T00:47:48.561Z,3.218688
2018-09-12T00:48:00.975Z,3.218688
2018-09-12T00:48:13.383Z,6.437376
2018-09-12T00:48:25.795Z,6.437376
2018-09-12T00:48:38.254Z,6.437376
2018-09-12T00:48:50.662Z,6.437376
2018-09-12T00:49:03.058Z,6.437376
2018-09-12T00:49:15.733Z,1.609344
2018-09-12T00:49:28.139Z,3.218688
2018-09-12T00:49:40.551Z,3.218688
2018-09-12T00:49:52.953Z,3.218688
2018-09-12T00:50:05.466Z,3.218688
2018-09-12T00:50:17.997Z,3.218688
2018-09-12T00:50:30.432Z,4.828032
2018-09-12T00:50:42.853Z,4.828032
2018-09-12T00:50:55.251Z,4.828032
2018-09-12T00:51:07.659Z,3.218688
2018-09-12T00:51:20.066Z,3.218688
2018-09-12T00:51:32.503Z,3.218688
2018-09-12T00:51:44.918Z,3.218688
2018-09-12T00:51:57.314Z,3.218688
2018-09-12T00:52:09.734Z,3.218688
2018-09-12T00:52:22.159Z,8.04672
2018-09-12T00:52:34.559Z,8.04672
2018-09-12T00:52:46.951Z,8.04672
2018-09-12T00:52:59.356Z,8.04672
2018-09-12T00:53:11.791Z,3.218688
2018-09-12T00:53:24.190Z,3.218688
2018-09-12T00:53:36.580Z,3.218688
2018-09-12T00:53:48.989Z,3.218688
2018-09-12T00:54:01.388Z,3.218688
2018-09-12T00:54:13.805Z,0
2018-09-12T00:54:26.251Z,0
2018-09-12T00:54:38.663Z,3.218688
2018-09-12T00:54:51.132Z,3.218688
2018-09-12T00:55:03.539Z,3.218688
2018-09-12T00:55:15.942Z,1.609344
2018-09-12T00:55:28.335Z,1.609344
2018-09-12T00:55:40.747Z,1.609344
2018-09-12T00:55:53.321Z,1.609344
2018-09-12T00:56:05.845Z,1.609344
2018-09-12T00:56:18.260Z,1.609344
2018-09-12T00:56:30.651Z,3.218688
2018-09-12T00:56:43.051Z,3.218688
2018-09-12T00:56:55.514Z,3.218688
2018-09-12T00:57:08.012Z,1.609344
2018-09-12T00:57:20.423Z,1.609344
2018-09-12T00:57:32.841Z,3.218688
2018-09-12T00:57:45.230Z,3.218688
2018-09-12T00:57:57.644Z,3.218688
2018-09-12T00:58:10.136Z,6.437376
2018-09-12T00:58:22.528Z,8.04672
2018-09-12T00:58:34.961Z,8.04672
2018-09-12T00:58:47.365Z,8.04672
2018-09-12T00:58:59.781Z,8.04672
2018-09-12T00:59:12.193Z,1.609344
2018-09-12T00:59:24.797Z,1.609344
2018-09-12T00:59:37.252Z,1.609344
2018-09-12T00:59:49.699Z,1.609344
2018-09-12T01:00:02.121Z,1.609344
2018-09-12T01:00:14.591Z,1.609344
2018-09-12T01:00:27.158Z,8.04672
2018-09-12T01:00:39.598Z,8.04672
2018-09-12T01:00:52.018Z,8.04672
2018-09-12T01:01:04.432Z,1.609344
2018-09-12T01:01:16.848Z,1.609344
2018-09-12T01:01:29.257Z,1.609344
2018-09-12T01:01:41.680Z,1.609344
2018-09-12T01:01:54.099Z,1.609344
2018-09-12T01:02:06.518Z,6.437376
2018-09-12T01:02:18.911Z,6.437376
2018-09-12T01:02:31.339Z,8.04672
2018-09-12T01:02:43.742Z,8.04672
2018-09-12T01:02:56.152Z,8.04672
2018-09-12T01:03:08.568Z,1.609344
2018-09-12T01:03:21.107Z,1.609344
2018-09-12T01:03:33.677Z,1.609344
2018-09-12T01:03:46.195Z,1.609344
2018-09-12T01:03:58.593Z,1.609344
2018-09-12T01:04:11.014Z,1.609344
2018-09-12T01:04:23.566Z,4.828032
2018-09-12T01:04:35.981Z,4.828032
2018-09-12T01:04:48.513Z,4.828032
2018-09-12T01:05:00.932Z,4.828032
2018-09-12T01:05:13.347Z,1.609344
2018-09-12T01:05:25.738Z,1.609344
2018-09-12T01:05:38.139Z,1.609344
2018-09-12T01:05:50.536Z,1.609344
2018-09-12T01:06:02.972Z,1.609344
2018-09-12T01:06:15.393Z,1.609344
2018-09-12T01:06:27.834Z,1.609344
2018-09-12T01:06:40.218Z,3.218688
2018-09-12T01:06:52.617Z,4.828032
2018-09-12T01:07:05.027Z,3.218688
2018-09-12T01:07:17.446Z,3.218688
2018-09-12T01:07:29.893Z,3.218688
2018-09-12T01:07:42.308Z,6.437376
2018-09-12T01:07:54.716Z,8.04672
2018-09-12T01:08:07.107Z,1.609344
2018-09-12T01:08:19.544Z,1.609344
2018-09-12T01:08:31.957Z,3.218688
2018-09-12T01:08:44.365Z,3.218688
2018-09-12T01:08:56.785Z,3.218688
2018-09-12T01:09:09.253Z,1.609344
2018-09-12T01:09:21.757Z,1.609344
2018-09-12T01:09:34.154Z,1.609344
2018-09-12T01:09:46.566Z,1.609344
2018-09-12T01:09:58.968Z,1.609344
2018-09-12T01:10:11.365Z,3.218688
2018-09-12T01:10:24.082Z,3.218688
2018-09-12T01:10:36.490Z,3.218688
2018-09-12T01:10:48.868Z,3.218688
2018-09-12T01:11:01.306Z,3.218688
2018-09-12T01:11:13.701Z,1.609344
2018-09-12T01:11:26.094Z,1.609344
2018-09-12T01:11:38.649Z,3.218688
2018-09-12T01:11:51.204Z,3.218688
2018-09-12T01:12:03.618Z,3.218688
2018-09-12T01:12:16.031Z,3.218688
2018-09-12T01:12:28.481Z,3.218688
2018-09-12T01:12:40.894Z,3.218688
2018-09-12T01:12:53.297Z,3.218688
2018-09-12T01:13:05.724Z,1.609344
2018-09-12T01:13:18.133Z,3.218688
2018-09-12T01:13:30.528Z,8.04672
2018-09-12T01:13:42.943Z,8.04672
2018-09-12T01:13:55.400Z,8.04672
2018-09-12T01:14:07.819Z,3.218688
2018-09-12T01:14:20.236Z,4.828032
2018-09-12T01:14:32.637Z,6.437376
2018-09-12T01:14:45.068Z,6.437376
2018-09-12T01:14:57.542Z,6.437376
2018-09-12T01:15:10.152Z,4.828032
2018-09-12T01:15:22.564Z,4.828032
2018-09-12T01:15:34.974Z,4.828032
2018-09-12T01:15:47.384Z,4.828032
2018-09-12T01:15:59.776Z,4.828032
2018-09-12T01:16:12.179Z,0
2018-09-12T01:16:24.556Z,1.609344
2018-09-12T01:16:36.980Z,1.609344
2018-09-12T01:16:49.452Z,1.609344
2018-09-12T01:17:01.863Z,1.609344
2018-09-12T01:17:14.298Z,1.609344
2018-09-12T01:17:26.719Z,3.218688
2018-09-12T01:17:39.218Z,3.218688
2018-09-12T01:17:51.629Z,4.828032
2018-09-12T01:18:04.072Z,6.437376
2018-09-12T01:18:16.465Z,1.609344
2018-09-12T01:18:28.879Z,1.609344
2018-09-12T01:18:41.346Z,1.609344
2018-09-12T01:18:53.751Z,3.218688
2018-09-12T01:19:06.153Z,3.218688
2018-09-12T01:19:18.560Z,3.218688
2018-09-12T01:19:30.995Z,3.218688
2018-09-12T01:19:43.379Z,3.218688
2018-09-12T01:19:55.799Z,3.218688
2018-09-12T01:20:08.208Z,1.609344
2018-09-12T01:20:20.621Z,3.218688
2018-09-12T01:20:33.046Z,3.218688
2018-09-12T01:20:45.454Z,3.218688
2018-09-12T01:20:58.015Z,3.218688
2018-09-12T01:21:10.432Z,3.218688
2018-09-12T01:21:22.855Z,3.218688
2018-09-12T01:21:35.270Z,3.218688
2018-09-12T01:21:47.671Z,6.437376
2018-09-12T01:22:00.068Z,6.437376
2018-09-12T01:22:12.487Z,6.437376
2018-09-12T01:22:24.894Z,6.437376
2018-09-12T01:22:37.299Z,6.437376
2018-09-12T01:22:49.709Z,6.437376
2018-09-12T01:23:02.115Z,6.437376
2018-09-12T01:23:14.614Z,3.218688
2018-09-12T01:23:27.040Z,3.218688
2018-09-12T01:23:39.434Z,3.218688
2018-09-12T01:23:51.851Z,3.218688
2018-09-12T01:24:04.350Z,3.218688
2018-09-12T01:24:16.742Z,1.609344
2018-09-12T01:24:29.146Z,1.609344
2018-09-12T01:24:41.540Z,1.609344
2018-09-12T01:24:53.960Z,1.609344
2018-09-12T01:25:06.367Z,4.828032
2018-09-12T01:25:18.769Z,4.828032
2018-09-12T01:25:31.181Z,4.828032
2018-09-12T01:25:43.833Z,6.437376
2018-09-12T01:25:56.280Z,6.437376
2018-09-12T01:26:08.678Z,3.218688
2018-09-12T01:26:21.097Z,3.218688
2018-09-12T01:26:33.500Z,3.218688
2018-09-12T01:26:45.894Z,3.218688
2018-09-12T01:26:58.296Z,3.218688
2018-09-12T01:27:10.720Z,1.609344
2018-09-12T01:27:23.154Z,1.609344
2018-09-12T01:27:35.564Z,1.609344
2018-09-12T01:27:47.977Z,3.218688
2018-09-12T01:28:00.382Z,3.218688
2018-09-12T01:28:12.776Z,8.04672
2018-09-12T01:28:25.192Z,8.04672
2018-09-12T01:28:37.596Z,8.04672
2018-09-12T01:28:49.999Z,8.04672
2018-09-12T01:29:02.440Z,8.04672
2018-09-12T01:29:14.855Z,1.609344
2018-09-12T01:29:27.262Z,1.609344
2018-09-12T01:29:39.662Z,3.218688
2018-09-12T01:29:52.063Z,3.218688
2018-09-12T01:30:04.482Z,1.609344
2018-09-12T01:30:16.926Z,3.218688
2018-09-12T01:30:29.342Z,3.218688
2018-09-12T01:30:41.726Z,3.218688
2018-09-12T01:30:54.192Z,3.218688
2018-09-12T01:31:06.622Z,3.218688
2018-09-12T01:31:19.028Z,3.218688
2018-09-12T01:31:31.437Z,4.828032
2018-09-12T01:31:43.856Z,6.437376
2018-09-12T01:31:56.562Z,6.437376
2018-09-12T01:32:08.961Z,3.218688
2018-09-12T01:32:21.359Z,3.218688
2018-09-12T01:32:33.744Z,3.218688
2018-09-12T01:32:46.155Z,3.218688
2018-09-12T01:32:58.547Z,3.218688
2018-09-12T01:33:10.958Z,3.218688
2018-09-12T01:33:23.370Z,3.218688
2018-09-12T01:33:35.789Z,3.218688
2018-09-12T01:33:48.187Z,3.218688
2018-09-12T01:34:00.598Z,3.218688
2018-09-12T01:34:12.999Z,1.609344
2018-09-12T01:34:25.406Z,1.609344
2018-09-12T01:34:37.802Z,1.609344
2018-09-12T01:34:50.243Z,1.609344
2018-09-12T01:35:02.665Z,1.609344
2018-09-12T01:35:15.078Z,3.218688
2018-09-12T01:35:27.493Z,3.218688
2018-09-12T01:35:39.888Z,3.218688
2018-09-12T01:35:52.292Z,3.218688
2018-09-12T01:36:04.705Z,1.609344
2018-09-12T01:36:17.123Z,1.609344
2018-09-12T01:36:29.528Z,1.609344
2018-09-12T01:36:41.926Z,3.218688
2018-09-12T01:36:54.348Z,4.828032
2018-09-12T01:37:06.790Z,3.218688
2018-09-12T01:37:19.222Z,6.437376
2018-09-12T01:37:31.775Z,6.437376
2018-09-12T01:37:44.198Z,6.437376
2018-09-12T01:37:56.609Z,6.437376
2018-09-12T01:38:09.068Z,1.609344
2018-09-12T01:38:21.489Z,1.609344
2018-09-12T01:38:33.899Z,8.04672
2018-09-12T01:38:46.306Z,9.656064
2018-09-12T01:38:58.707Z,9.656064
2018-09-12T01:39:11.147Z,3.218688
2018-09-12T01:39:23.561Z,4.828032
2018-09-12T01:39:35.949Z,4.828032
2018-09-12T01:39:48.368Z,4.828032
2018-09-12T01:40:00.772Z,4.828032
2018-09-12T01:40:13.169Z,1.609344
2018-09-12T01:40:25.591Z,1.609344
2018-09-12T01:40:38.036Z,1.609344
2018-09-12T01:40:50.481Z,1.609344
2018-09-12T01:41:02.882Z,3.218688
2018-09-12T01:41:15.276Z,3.218688
2018-09-12T01:41:27.660Z,3.218688
2018-09-12T01:41:40.063Z,3.218688
2018-09-12T01:41:52.444Z,3.218688
2018-09-12T01:42:04.845Z,1.609344
2018-09-12T01:42:17.237Z,1.609344
2018-09-12T01:42:29.654Z,1.609344
2018-09-12T01:42:42.073Z,1.609344
2018-09-12T01:42:54.564Z,1.609344
2018-09-12T01:43:06.963Z,6.437376
2018-09-12T01:43:19.363Z,9.656064
2018-09-12T01:43:31.747Z,9.656064
2018-09-12T01:43:44.142Z,9.656064
2018-09-12T01:43:56.539Z,9.656064
2018-09-12T01:44:08.968Z,3.218688
2018-09-12T01:44:21.392Z,8.04672
2018-09-12T01:44:33.841Z,8.04672
2018-09-12T01:44:46.235Z,8.04672
2018-09-12T01:44:58.634Z,8.04672
2018-09-12T01:45:11.032Z,0
2018-09-12T01:45:23.444Z,1.609344
2018-09-12T01:45:35.841Z,1.609344
2018-09-12T01:45:48.258Z,1.609344
2018-09-12T01:46:00.667Z,1.609344
2018-09-12T01:46:13.093Z,8.04672
2018-09-12T01:46:25.493Z,8.04672
2018-09-12T01:46:37.930Z,9.656064
2018-09-12T01:46:50.330Z,9.656064
2018-09-12T01:47:02.740Z,9.656064
2018-09-12T01:47:15.177Z,3.218688
2018-09-12T01:47:27.598Z,3.218688
2018-09-12T01:47:40.006Z,3.218688
2018-09-12T01:47:52.502Z,3.218688
2018-09-12T01:48:04.897Z,0
2018-09-12T01:48:17.333Z,1.609344
2018-09-12T01:48:29.731Z,1.609344
2018-09-12T01:48:42.130Z,1.609344
2018-09-12T01:48:54.541Z,3.218688
2018-09-12T01:49:06.945Z,3.218688
2018-09-12T01:49:19.541Z,3.218688
2018-09-12T01:49:31.974Z,3.218688
2018-09-12T01:49:44.401Z,8.04672
2018-09-12T01:49:56.791Z,8.04672
2018-09-12T01:50:09.208Z,4.828032
2018-09-12T01:50:21.623Z,6.437376
2018-09-12T01:50:34.034Z,6.437376
2018-09-12T01:50:46.633Z,6.437376
2018-09-12T01:50:59.044Z,6.437376
2018-09-12T01:51:11.461Z,3.218688
2018-09-12T01:51:23.869Z,3.218688
2018-09-12T01:51:36.260Z,3.218688
2018-09-12T01:51:48.697Z,3.218688
2018-09-12T01:52:01.109Z,3.218688
2018-09-12T01:52:13.533Z,3.218688
2018-09-12T01:52:25.973Z,3.218688
2018-09-12T01:52:38.389Z,3.218688
2018-09-12T01:52:50.820Z,3.218688
2018-09-12T01:53:03.485Z,3.218688
2018-09-12T01:53:15.893Z,1.609344
2018-09-12T01:53:28.328Z,1.609344
2018-09-12T01:53:40.835Z,3.218688
2018-09-12T01:53:53.253Z,3.218688
2018-09-12T01:54:05.653Z,6.437376
2018-09-12T01:54:18.061Z,9.656064
2018-09-12T01:54:30.492Z,9.656064
2018-09-12T01:54:42.921Z,9.656064
2018-09-12T01:54:55.334Z,9.656064
2018-09-12T01:55:07.788Z,6.437376
2018-09-12T01:55:20.191Z,6.437376
2018-09-12T01:55:32.601Z,8.04672
2018-09-12T01:55:45.020Z,8.04672
2018-09-12T01:55:57.565Z,8.04672
2018-09-12T01:56:09.959Z,3.218688
2018-09-12T01:56:22.355Z,4.828032
2018-09-12T01:56:34.877Z,8.04672
2018-09-12T01:56:47.269Z,8.04672
2018-09-12T01:56:59.672Z,8.04672
2018-09-12T01:57:12.072Z,1.609344
2018-09-12T01:57:24.505Z,3.218688
2018-09-12T01:57:36.903Z,4.828032
2018-09-12T01:57:49.313Z,4.828032
2018-09-12T01:58:01.719Z,4.828032
2018-09-12T01:58:14.150Z,1.609344
2018-09-12T01:58:26.565Z,3.218688
2018-09-12T01:58:39.009Z,3.218688
2018-09-12T01:58:51.413Z,3.218688
2018-09-12T01:59:03.823Z,3.218688
2018-09-12T01:59:16.242Z,3.218688
2018-09-12T01:59:28.665Z,3.218688
2018-09-12T01:59:41.073Z,3.218688
2018-09-12T01:59:53.489Z,3.218688
2018-09-12T02:00:05.909Z,1.609344
2018-09-12T02:00:18.391Z,3.218688
2018-09-12T02:00:30.813Z,3.218688
2018-09-12T02:00:43.239Z,3.218688
2018-09-12T02:00:55.664Z,6.437376
2018-09-12T02:01:08.101Z,1.609344
2018-09-12T02:01:20.529Z,3.218688
2018-09-12T02:01:32.931Z,3.218688
2018-09-12T02:01:45.381Z,3.218688
2018-09-12T02:01:57.800Z,3.218688
2018-09-12T02:02:10.197Z,0
2018-09-12T02:02:22.617Z,1.609344
2018-09-12T02:02:35.021Z,3.218688
2018-09-12T02:02:47.447Z,3.218688
2018-09-12T02:02:59.889Z,6.437376
2018-09-12T02:03:12.296Z,1.609344
2018-09-12T02:03:24.941Z,1.609344
2018-09-12T02:03:37.640Z,1.609344
2018-09-12T02:03:50.186Z,1.609344
2018-09-12T02:04:02.630Z,1.609344
2018-09-12T02:04:15.036Z,3.218688
2018-09-12T02:04:27.520Z,8.04672
2018-09-12T02:04:39.942Z,8.04672
2018-09-12T02:04:52.340Z,8.04672
2018-09-12T02:05:04.747Z,3.218688
2018-09-12T02:05:17.160Z,3.218688
2018-09-12T02:05:29.552Z,3.218688
2018-09-12T02:05:42.026Z,6.437376
2018-09-12T02:05:54.430Z,6.437376
2018-09-12T02:06:06.832Z,1.609344
2018-09-12T02:06:19.233Z,3.218688
2018-09-12T02:06:31.649Z,4.828032
2018-09-12T02:06:44.050Z,8.04672
2018-09-12T02:06:56.440Z,11.265408
2018-09-12T02:07:08.844Z,9.656064
2018-09-12T02:07:21.262Z,11.265408
2018-09-12T02:07:33.661Z,11.265408
2018-09-12T02:07:46.089Z,11.265408
2018-09-12T02:07:58.488Z,11.265408
2018-09-12T02:08:10.909Z,8.04672
2018-09-12T02:08:23.309Z,8.04672
2018-09-12T02:08:35.723Z,8.04672
2018-09-12T02:08:48.162Z,8.04672
2018-09-12T02:09:00.571Z,8.04672
2018-09-12T02:09:12.974Z,1.609344
2018-09-12T02:09:25.370Z,1.609344
2018-09-12T02:09:37.762Z,4.828032
2018-09-12T02:09:50.184Z,8.04672
2018-09-12T02:10:02.584Z,6.437376
2018-09-12T02:10:15.160Z,6.437376
2018-09-12T02:10:28.088Z,6.437376
2018-09-12T02:10:40.512Z,6.437376
2018-09-12T02:10:52.917Z,6.437376
2018-09-12T02:11:05.311Z,1.609344
2018-09-12T02:11:17.714Z,3.218688
2018-09-12T02:11:30.138Z,3.218688
2018-09-12T02:11:42.664Z,3.218688
2018-09-12T02:11:55.258Z,3.218688
2018-09-12T02:12:07.670Z,1.609344
2018-09-12T02:12:20.067Z,1.609344
2018-09-12T02:12:32.497Z,3.218688
2018-09-12T02:12:44.902Z,3.218688
2018-09-12T02:12:57.302Z,3.218688
2018-09-12T02:13:09.718Z,3.218688
2018-09-12T02:13:22.202Z,3.218688
2018-09-12T02:13:34.613Z,3.218688
2018-09-12T02:13:47.016Z,3.218688
2018-09-12T02:13:59.444Z,3.218688
2018-09-12T02:14:11.849Z,1.609344
2018-09-12T02:14:24.272Z,3.218688
2018-09-12T02:14:36.700Z,3.218688
2018-09-12T02:14:49.117Z,3.218688
2018-09-12T02:15:01.505Z,6.437376
2018-09-12T02:15:13.938Z,4.828032
2018-09-12T02:15:26.344Z,4.828032
2018-09-12T02:15:38.729Z,4.828032
2018-09-12T02:15:51.127Z,4.828032
2018-09-12T02:16:03.540Z,4.828032
2018-09-12T02:16:15.991Z,1.609344
2018-09-12T02:16:28.399Z,1.609344
2018-09-12T02:16:40.809Z,1.609344
2018-09-12T02:16:53.221Z,1.609344
2018-09-12T02:17:05.654Z,1.609344
2018-09-12T02:17:18.060Z,1.609344
2018-09-12T02:17:30.457Z,1.609344
2018-09-12T02:17:42.868Z,6.437376
2018-09-12T02:17:55.286Z,6.437376
2018-09-12T02:18:07.695Z,1.609344
2018-09-12T02:18:20.248Z,1.609344
2018-09-12T02:18:32.669Z,1.609344
2018-09-12T02:18:45.090Z,1.609344
2018-09-12T02:18:57.502Z,1.609344
2018-09-12T02:19:09.913Z,1.609344
2018-09-12T02:19:22.320Z,1.609344
2018-09-12T02:19:34.728Z,1.609344
2018-09-12T02:19:47.139Z,6.437376
2018-09-12T02:19:59.552Z,8.04672
2018-09-12T02:20:11.958Z,6.437376
2018-09-12T02:20:24.364Z,6.437376
2018-09-12T02:20:36.769Z,6.437376
2018-09-12T02:20:49.187Z,6.437376
2018-09-12T02:21:01.676Z,6.437376
2018-09-12T02:21:14.076Z,3.218688
2018-09-12T02:21:26.468Z,3.218688
2018-09-12T02:21:38.883Z,3.218688
2018-09-12T02:21:51.313Z,3.218688
2018-09-12T02:22:03.732Z,3.218688
2018-09-12T02:22:16.154Z,3.218688
2018-09-12T02:22:28.572Z,3.218688
2018-09-12T02:22:40.999Z,3.218688
2018-09-12T02:22:53.408Z,3.218688
2018-09-12T02:23:05.797Z,0
2018-09-12T02:23:18.352Z,0
2018-09-12T02:23:30.755Z,0
2018-09-12T02:23:43.159Z,0
2018-09-12T02:23:55.738Z,1.609344
2018-09-12T02:24:08.200Z,3.218688
2018-09-12T02:24:20.599Z,4.828032
2018-09-12T02:24:33.008Z,6.437376
2018-09-12T02:24:45.417Z,6.437376
2018-09-12T02:24:57.825Z,6.437376
2018-09-12T02:25:10.294Z,1.609344
2018-09-12T02:25:22.722Z,1.609344
2018-09-12T02:25:35.346Z,1.609344
2018-09-12T02:25:47.759Z,3.218688
2018-09-12T02:26:00.188Z,3.218688
2018-09-12T02:26:12.605Z,9.656064
2018-09-12T02:26:25.025Z,9.656064
2018-09-12T02:26:37.445Z,9.656064
2018-09-12T02:26:49.866Z,9.656064
2018-09-12T02:27:02.269Z,9.656064